Time;durP1;ratioP1;P1;durP2;ratioP2;P2;SDS_P1;SDS_P2;PMS_P1;PMS_P2;Temp;Humidity;BMP_temperature;BMP_pressure;BME280_temperature;BME280_humidity;BME280_pressure;Samples;Min_cycle;Max_cycle;Signal;HPM_P1;HPM_P2
2021/06/16 00:01:01;;;;;;;31.40;19.05;;;;;;;16.16;100.00;98037.53;5011071;28;20049;-80
2021/06/16 00:03:27;;;;;;;25.35;17.52;;;;;;;16.13;100.00;98027.28;5012853;28;20145;-80
2021/06/16 00:05:56;;;;;;;22.23;15.65;;;;;;;16.01;100.00;98024.53;4977862;28;20049;-81
2021/06/16 00:08:24;;;;;;;29.13;18.15;;;;;;;15.96;100.00;98037.63;5015845;28;20034;-80
2021/06/16 00:10:51;;;;;;;22.55;16.38;;;;;;;15.98;100.00;98036.16;5029651;28;20050;-80
2021/06/16 00:13:18;;;;;;;25.60;17.00;;;;;;;15.96;100.00;98034.91;4981536;28;20120;-80
2021/06/16 00:15:48;;;;;;;26.20;17.73;;;;;;;15.82;100.00;98037.94;5013280;28;20050;-80
2021/06/16 00:18:14;;;;;;;26.83;19.38;;;;;;;15.80;100.00;98033.94;4978608;28;20416;-80
2021/06/16 00:20:41;;;;;;;24.90;17.58;;;;;;;15.78;100.00;98033.50;4993776;28;20053;-81
2021/06/16 00:23:08;;;;;;;28.27;19.77;;;;;;;15.75;100.00;98040.44;5013817;28;20386;-81
2021/06/16 00:25:35;;;;;;;28.15;18.35;;;;;;;15.75;100.00;98043.16;4993622;28;20081;-80
2021/06/16 00:28:02;;;;;;;27.02;18.45;;;;;;;15.60;100.00;98032.91;5012423;28;20057;-81
2021/06/16 00:30:31;;;;;;;23.52;18.05;;;;;;;15.66;100.00;98030.75;5017689;28;20063;-81
2021/06/16 00:32:58;;;;;;;28.52;18.80;;;;;;;15.56;100.00;98026.53;4984308;28;20054;-82
2021/06/16 00:35:25;;;;;;;26.58;18.35;;;;;;;15.56;100.00;98032.00;5017464;28;20084;-82
2021/06/16 00:37:53;;;;;;;34.47;20.98;;;;;;;15.55;100.00;98033.91;4983181;28;20057;-81
2021/06/16 00:40:24;;;;;;;30.38;19.50;;;;;;;15.43;100.00;98028.38;5000564;28;20306;-82
2021/06/16 00:42:52;;;;;;;25.25;18.05;;;;;;;15.46;100.00;98035.94;5019833;28;20065;-82
2021/06/16 00:45:20;;;;;;;28.33;18.63;;;;;;;15.42;100.00;98026.78;5002136;28;20125;-82
2021/06/16 00:47:47;;;;;;;32.95;18.98;;;;;;;15.40;100.00;98034.53;5001151;28;20050;-83
2021/06/16 00:50:17;;;;;;;27.13;19.13;;;;;;;15.39;100.00;98034.84;4999958;28;20077;-83
2021/06/16 00:52:43;;;;;;;33.63;22.10;;;;;;;15.40;100.00;98025.53;4998828;28;20046;-81
2021/06/16 00:55:10;;;;;;;31.38;22.15;;;;;;;15.38;100.00;98036.00;5017519;28;20053;-81
2021/06/16 00:57:37;;;;;;;34.38;21.98;;;;;;;15.32;100.00;98031.88;5016930;28;20050;-81
2021/06/16 01:00:13;;;;;;;33.05;21.25;;;;;;;15.18;100.00;98039.53;5009884;28;20053;-81
2021/06/16 01:03:00;;;;;;;36.97;23.95;;;;;;;15.17;100.00;98035.22;5033095;28;20046;-82
2021/06/16 01:05:33;;;;;;;29.73;22.40;;;;;;;15.16;100.00;98033.63;5000927;28;20046;-82
2021/06/16 01:08:01;;;;;;;31.65;22.10;;;;;;;15.07;100.00;98025.53;5001494;28;20041;-82
2021/06/16 01:10:34;;;;;;;31.83;21.23;;;;;;;15.13;100.00;98037.81;5017375;28;20058;-82
2021/06/16 01:13:28;;;;;;;35.20;23.92;;;;;;;15.20;100.00;98045.47;4999414;28;20141;-81
2021/06/16 01:16:20;;;;;;;36.95;25.33;;;;;;;15.09;100.00;98047.81;5016162;28;20041;-82
2021/06/16 01:18:51;;;;;;;33.40;22.33;;;;;;;15.05;100.00;98037.88;5017635;28;20054;-82
2021/06/16 01:21:19;;;;;;;33.33;22.15;;;;;;;14.89;100.00;98029.53;5016373;28;20444;-83
2021/06/16 01:23:59;;;;;;;34.70;22.65;;;;;;;14.98;100.00;98033.78;4999219;28;20545;-82
2021/06/16 01:26:46;;;;;;;33.92;22.88;;;;;;;14.95;100.00;98033.63;5015279;28;20046;-82
2021/06/16 01:29:23;;;;;;;38.60;24.45;;;;;;;14.90;100.00;98031.13;5015920;28;20152;-81
2021/06/16 01:31:50;;;;;;;34.83;24.05;;;;;;;14.94;100.00;98034.78;4998142;28;20289;-81
2021/06/16 01:34:22;;;;;;;37.42;24.23;;;;;;;14.88;100.00;98031.47;5015780;28;20049;-82
2021/06/16 01:36:51;;;;;;;38.05;25.08;;;;;;;14.93;100.00;98033.19;4998968;28;20065;-82
2021/06/16 01:39:22;;;;;;;37.97;26.88;;;;;;;14.88;100.00;98027.94;5015525;28;20050;-81
2021/06/16 01:41:53;;;;;;;44.75;26.20;;;;;;;14.89;100.00;98024.09;4998291;28;20038;-82
2021/06/16 01:44:21;;;;;;;36.45;25.30;;;;;;;14.93;100.00;98031.25;5004967;28;20060;-81
2021/06/16 01:46:50;;;;;;;30.23;21.75;;;;;;;14.91;100.00;98021.81;5010293;28;20528;-82
2021/06/16 01:49:20;;;;;;;34.47;21.75;;;;;;;15.02;100.00;98028.44;4996270;28;20421;-81
2021/06/16 01:51:48;;;;;;;34.92;21.92;;;;;;;15.01;100.00;98020.59;5012118;28;20042;-80
2021/06/16 01:54:17;;;;;;;30.25;20.40;;;;;;;15.05;100.00;98027.78;4996031;28;20050;-80
2021/06/16 01:56:45;;;;;;;32.60;21.13;;;;;;;15.04;100.00;98017.22;4997362;28;20049;-80
2021/06/16 01:59:13;;;;;;;26.38;19.30;;;;;;;14.91;100.00;98017.16;5026540;28;20033;-80
2021/06/16 02:01:40;;;;;;;33.28;21.27;;;;;;;14.64;100.00;98012.22;4997151;28;20102;-80
2021/06/16 02:04:07;;;;;;;37.70;22.98;;;;;;;14.73;100.00;98021.16;5001093;28;20521;-81
2021/06/16 02:06:40;;;;;;;32.80;22.33;;;;;;;14.75;100.00;98024.34;4999996;28;20125;-79
2021/06/16 02:09:09;;;;;;;28.40;21.27;;;;;;;14.77;100.00;98011.19;4998434;28;20258;-79
2021/06/16 02:11:41;;;;;;;30.02;20.40;;;;;;;14.82;100.00;98010.97;5017230;28;20046;-80
2021/06/16 02:14:11;;;;;;;31.02;20.55;;;;;;;14.79;100.00;98008.09;5018250;28;20555;-80
2021/06/16 02:16:56;;;;;;;31.25;21.10;;;;;;;14.81;100.00;98009.38;5021423;28;20185;-82
2021/06/16 02:19:31;;;;;;;25.67;19.42;;;;;;;14.87;100.00;98005.31;5003791;28;20065;-80
2021/06/16 02:22:00;;;;;;;32.47;19.38;;;;;;;14.89;100.00;98008.50;5022604;28;20042;-80
2021/06/16 02:24:27;;;;;;;35.95;19.95;;;;;;;14.91;100.00;98000.81;5019720;28;20618;-81
2021/06/16 02:26:54;;;;;;;27.48;18.58;;;;;;;14.96;100.00;97995.16;5017145;28;20042;-80
2021/06/16 02:29:24;;;;;;;26.45;17.75;;;;;;;14.89;100.00;97997.59;4998365;28;20185;-80
2021/06/16 02:31:50;;;;;;;29.15;19.17;;;;;;;14.81;100.00;97992.25;5015787;28;20072;-81
2021/06/16 02:34:19;;;;;;;37.78;22.17;;;;;;;14.80;100.00;97987.91;4984465;28;20050;-81
2021/06/16 02:36:48;;;;;;;30.30;21.83;;;;;;;14.77;100.00;97983.13;5017683;28;20046;-81
2021/06/16 02:39:19;;;;;;;31.33;21.33;;;;;;;14.81;100.00;97993.00;5017381;28;20061;-81
2021/06/16 02:41:47;;;;;;;36.15;21.60;;;;;;;14.91;100.00;97992.63;5015572;28;20045;-81
2021/06/16 02:44:14;;;;;;;33.05;20.02;;;;;;;14.97;100.00;97985.03;4997156;28;20049;-81
2021/06/16 02:46:43;;;;;;;25.88;19.20;;;;;;;15.06;100.00;97996.66;5016559;28;20305;-82
2021/06/16 02:49:13;;;;;;;32.05;19.00;;;;;;;15.02;100.00;97973.13;4981906;28;20050;-82
2021/06/16 02:51:40;;;;;;;25.52;17.95;;;;;;;15.09;100.00;97979.63;5015355;28;20457;-81
2021/06/16 02:54:17;;;;;;;28.95;18.40;;;;;;;14.99;100.00;97971.88;4981121;28;20069;-80
2021/06/16 02:56:46;;;;;;;29.73;18.38;;;;;;;14.97;100.00;97983.09;4997283;28;20425;-80
2021/06/16 02:59:18;;;;;;;28.17;18.88;;;;;;;15.03;100.00;97980.16;5013889;28;20046;-80
2021/06/16 03:01:47;;;;;;;24.50;17.95;;;;;;;15.08;100.00;97975.31;5014532;28;20042;-80
2021/06/16 03:04:15;;;;;;;26.65;19.48;;;;;;;15.08;100.00;97975.31;4993414;28;20177;-80
2021/06/16 03:06:43;;;;;;;28.85;19.05;;;;;;;15.13;100.00;97977.00;4992545;28;20064;-80
2021/06/16 03:09:11;;;;;;;31.48;21.90;;;;;;;15.08;100.00;97980.75;4994104;28;20080;-80
2021/06/16 03:11:39;;;;;;;37.17;22.98;;;;;;;15.08;100.00;97979.97;5011448;28;20041;-80
2021/06/16 03:14:06;;;;;;;32.63;21.42;;;;;;;15.11;100.00;97982.81;4994182;28;20054;-80
2021/06/16 03:16:34;;;;;;;32.08;22.45;;;;;;;15.12;100.00;97989.06;5013404;28;20060;-80
2021/06/16 03:19:02;;;;;;;29.77;20.83;;;;;;;15.13;100.00;97988.72;4985435;28;20049;-81
2021/06/16 03:21:36;;;;;;;31.38;21.95;;;;;;;15.15;100.00;97993.88;4999123;28;20041;-81
2021/06/16 03:24:04;;;;;;;33.60;20.30;;;;;;;15.21;100.00;97996.03;4997353;28;20065;-81
2021/06/16 03:26:33;;;;;;;27.50;19.23;;;;;;;15.30;100.00;97998.69;5014904;28;20136;-81
2021/06/16 03:29:01;;;;;;;24.30;17.30;;;;;;;15.42;100.00;97993.25;5013655;28;20099;-82
2021/06/16 03:31:30;;;;;;;26.13;18.00;;;;;;;15.53;100.00;97983.53;5014174;28;20046;-80
2021/06/16 03:33:58;;;;;;;31.85;19.13;;;;;;;15.53;100.00;97981.63;4996088;28;20053;-80
2021/06/16 03:36:27;;;;;;;28.45;19.50;;;;;;;15.57;100.00;97989.91;5014641;28;20113;-81
2021/06/16 03:38:53;;;;;;;30.85;19.15;;;;;;;15.59;100.00;97982.97;5014668;28;20077;-81
2021/06/16 03:41:21;;;;;;;28.30;18.00;;;;;;;15.70;100.00;97982.53;4996874;28;20057;-81
2021/06/16 03:43:50;;;;;;;23.77;18.00;;;;;;;15.74;100.00;97980.72;5014854;28;20053;-80
2021/06/16 03:46:18;;;;;;;26.48;17.05;;;;;;;15.77;100.00;97980.06;4998682;28;20100;-81
2021/06/16 03:48:47;;;;;;;23.52;17.02;;;;;;;15.82;100.00;97968.91;5030444;28;20172;-81
2021/06/16 03:51:17;;;;;;;27.17;18.33;;;;;;;15.89;100.00;97975.41;4994356;28;20085;-81
2021/06/16 03:53:45;;;;;;;30.88;18.20;;;;;;;15.88;100.00;97970.25;4979198;28;20061;-81
2021/06/16 03:56:15;;;;;;;28.38;18.73;;;;;;;15.91;100.00;97975.84;5011463;28;20045;-80
2021/06/16 03:58:42;;;;;;;28.65;19.48;;;;;;;15.99;100.00;97980.41;5016711;28;20116;-81
2021/06/16 04:01:13;;;;;;;29.33;18.98;;;;;;;16.06;100.00;97964.22;5016430;28;20555;-81
2021/06/16 04:03:41;;;;;;;29.23;17.48;;;;;;;16.17;100.00;97978.22;4993046;28;20052;-80
2021/06/16 04:06:09;;;;;;;24.08;18.00;;;;;;;16.16;100.00;97971.16;5025368;28;20231;-80
2021/06/16 04:08:36;;;;;;;31.85;18.95;;;;;;;16.20;100.00;97978.34;5007630;28;20104;-81
2021/06/16 04:11:03;;;;;;;33.47;18.60;;;;;;;16.29;100.00;97975.47;5004548;28;20049;-82
2021/06/16 04:13:30;;;;;;;25.23;18.13;;;;;;;16.34;100.00;97991.63;5008534;28;20065;-80
2021/06/16 04:16:01;;;;;;;30.15;19.40;;;;;;;16.30;100.00;97979.00;5031313;28;20046;-81
2021/06/16 04:18:32;;;;;;;29.58;20.42;;;;;;;16.27;100.00;97990.63;5005108;28;20053;-80
2021/06/16 04:21:00;;;;;;;32.08;20.38;;;;;;;16.26;100.00;97994.50;5015521;28;20042;-80
2021/06/16 04:23:27;;;;;;;32.42;20.17;;;;;;;16.28;100.00;97984.03;5019034;28;20046;-81
2021/06/16 04:25:54;;;;;;;29.83;19.55;;;;;;;16.36;100.00;97989.38;5020535;28;20077;-81
2021/06/16 04:28:20;;;;;;;30.08;19.65;;;;;;;16.42;100.00;97984.44;5009101;28;20100;-80
2021/06/16 04:30:47;;;;;;;28.70;20.05;;;;;;;16.42;100.00;97982.53;5000940;28;20061;-81
2021/06/16 04:33:13;;;;;;;29.42;20.75;;;;;;;16.47;100.00;97984.22;5019827;28;20056;-80
2021/06/16 04:35:40;;;;;;;32.50;20.27;;;;;;;16.49;100.00;97988.19;5001931;28;20125;-80
2021/06/16 04:38:07;;;;;;;27.92;18.35;;;;;;;16.55;100.00;97986.06;5018434;28;20121;-80
2021/06/16 04:40:33;;;;;;;27.65;19.20;;;;;;;16.57;100.00;97976.38;5017915;28;20132;-80
2021/06/16 04:43:01;;;;;;;34.63;19.85;;;;;;;16.69;100.00;97983.75;5003540;28;20096;-80
2021/06/16 04:45:27;;;;;;;28.35;18.90;;;;;;;16.70;100.00;97986.13;5003678;28;20203;-80
2021/06/16 04:47:54;;;;;;;30.25;19.58;;;;;;;16.74;100.00;97978.84;4986250;28;20096;-80
2021/06/16 04:50:21;;;;;;;32.55;20.50;;;;;;;16.85;100.00;97990.09;5019387;28;20116;-80
2021/06/16 04:52:47;;;;;;;29.80;20.15;;;;;;;16.90;100.00;97981.66;4990186;28;20049;-79
2021/06/16 04:55:14;;;;;;;35.22;19.02;;;;;;;16.88;100.00;97972.97;5026198;28;20057;-81
2021/06/16 04:57:40;;;;;;;35.72;20.02;;;;;;;16.95;100.00;97981.41;5023694;28;20053;-81
2021/06/16 05:00:10;;;;;;;28.75;19.73;;;;;;;17.03;100.00;97980.47;5002604;28;20100;-82
2021/06/16 05:02:37;;;;;;;31.00;19.50;;;;;;;17.07;100.00;97973.13;4985526;28;20057;-81
2021/06/16 05:05:05;;;;;;;27.65;18.90;;;;;;;17.09;100.00;97979.03;5000955;28;20102;-82
2021/06/16 05:07:32;;;;;;;29.45;18.63;;;;;;;17.20;100.00;97971.13;5001038;28;20045;-82
2021/06/16 05:09:58;;;;;;;30.48;18.00;;;;;;;17.22;100.00;97952.41;5001024;28;20096;-82
2021/06/16 05:12:25;;;;;;;27.17;17.10;;;;;;;17.45;100.00;97967.91;5000870;28;20042;-81
2021/06/16 05:14:52;;;;;;;26.35;17.52;;;;;;;17.56;100.00;97960.00;5017164;28;20034;-82
2021/06/16 05:17:19;;;;;;;29.83;17.50;;;;;;;17.80;100.00;97965.34;5001029;28;20059;-82
2021/06/16 05:19:46;;;;;;;30.70;16.40;;;;;;;17.96;100.00;97959.84;5017178;28;20038;-81
2021/06/16 05:22:14;;;;;;;28.58;17.25;;;;;;;18.11;100.00;97964.50;4983300;28;20049;-81
2021/06/16 05:24:44;;;;;;;27.92;16.65;;;;;;;18.13;100.00;97950.44;5008002;28;20105;-81
2021/06/16 05:27:22;;;;;;;22.67;15.75;;;;;;;18.24;100.00;97937.78;5036103;28;20053;-81
2021/06/16 05:30:07;;;;;;;25.83;14.70;;;;;;;18.50;100.00;97949.78;4997405;28;20069;-82
2021/06/16 05:32:38;;;;;;;22.60;14.85;;;;;;;18.65;100.00;97950.88;4995755;28;20069;-82
2021/06/16 05:35:10;;;;;;;27.42;14.05;;;;;;;18.85;100.00;97944.22;5011535;28;20045;-82
2021/06/16 05:37:37;;;;;;;22.48;13.73;;;;;;;18.93;100.00;97956.16;4994192;28;20041;-73
2021/06/16 05:40:08;;;;;;;24.15;14.02;;;;;;;18.94;100.00;97950.31;5010224;28;20119;-73
2021/06/16 05:42:35;;;;;;;23.13;13.80;;;;;;;19.26;100.00;97943.47;5010310;28;20069;-76
2021/06/16 05:45:05;;;;;;;22.38;13.55;;;;;;;19.23;100.00;97957.13;4992803;28;20042;-73
2021/06/16 05:47:32;;;;;;;20.50;12.75;;;;;;;19.14;100.00;97946.41;4993129;28;20054;-75
2021/06/16 05:49:59;;;;;;;20.42;12.18;;;;;;;19.13;100.00;97953.03;5010695;28;20066;-73
2021/06/16 05:52:26;;;;;;;20.65;13.75;;;;;;;18.93;100.00;97950.66;4992601;28;20092;-75
2021/06/16 05:54:52;;;;;;;22.65;13.57;;;;;;;18.94;100.00;97953.06;5006255;28;20111;-73
2021/06/16 05:57:19;;;;;;;21.02;13.23;;;;;;;18.81;100.00;97953.56;4992136;28;20049;-73
2021/06/16 05:59:45;;;;;;;22.48;13.05;;;;;;;18.95;100.00;97953.81;4995921;28;20576;-74
2021/06/16 06:02:21;;;;;;;22.10;13.88;;;;;;;18.96;100.00;97952.69;4981217;28;20041;-74
2021/06/16 06:04:47;;;;;;;;;;;;;;;19.08;100.00;97958.00;5009821;28;20045;-73
2021/06/16 06:07:15;;;;;;;20.40;12.80;;;;;;;19.11;100.00;97966.31;4992450;28;20452;-73
2021/06/16 06:09:42;;;;;;;19.50;13.05;;;;;;;19.23;100.00;97960.66;4975970;28;20141;-73
2021/06/16 06:12:08;;;;;;;17.85;13.05;;;;;;;19.30;100.00;97952.56;5008446;28;20037;-73
2021/06/16 06:14:35;;;;;;;21.60;12.50;;;;;;;19.39;100.00;97949.63;5008900;28;20465;-73
2021/06/16 06:17:02;;;;;;;23.00;13.15;;;;;;;19.43;100.00;97958.75;5009837;28;20045;-72
2021/06/16 06:19:28;;;;;;;22.55;13.23;;;;;;;19.49;100.00;97948.22;5009477;28;20048;-73
2021/06/16 06:21:55;;;;;;;21.50;12.93;;;;;;;19.17;100.00;97959.41;5008604;28;20056;-72
2021/06/16 06:24:25;;;;;;;20.98;12.93;;;;;;;19.20;100.00;97955.13;4976358;28;20050;-74
2021/06/16 06:26:52;;;;;;;23.85;14.18;;;;;;;19.24;100.00;97958.72;4993649;28;20041;-72
2021/06/16 06:29:18;;;;;;;22.02;13.75;;;;;;;19.22;100.00;97963.78;5009751;28;20038;-72
2021/06/16 06:31:45;;;;;;;24.25;13.48;;;;;;;19.41;100.00;97952.78;5009366;28;20050;-72
2021/06/16 06:34:11;;;;;;;23.83;13.85;;;;;;;19.49;100.00;97954.50;5009241;28;20660;-72
2021/06/16 06:36:38;;;;;;;22.45;12.85;;;;;;;19.72;100.00;97951.75;5009815;28;20092;-72
2021/06/16 06:39:05;;;;;;;22.58;13.45;;;;;;;19.79;100.00;97949.16;5013442;28;20073;-72
2021/06/16 06:41:32;;;;;;;19.65;12.88;;;;;;;19.98;100.00;97948.25;4991325;28;20173;-72
2021/06/16 06:43:59;;;;;;;25.55;13.13;;;;;;;20.12;100.00;97946.56;5009911;28;20046;-74
2021/06/16 06:46:26;;;;;;;31.25;13.55;;;;;;;20.13;100.00;97941.84;5007728;28;20038;-72
2021/06/16 06:48:53;;;;;;;22.20;12.50;;;;;;;20.27;100.00;97933.84;5009348;28;20049;-73
2021/06/16 06:51:20;;;;;;;23.73;12.40;;;;;;;20.59;100.00;97943.34;4991469;28;20052;-73
2021/06/16 06:53:46;;;;;;;24.02;13.48;;;;;;;20.62;100.00;97928.81;5008115;28;20053;-73
2021/06/16 06:56:13;;;;;;;22.98;12.15;;;;;;;20.82;100.00;97940.47;5011277;28;20166;-73
2021/06/16 06:58:39;;;;;;;22.33;12.35;;;;;;;20.90;100.00;97939.41;5008306;28;20045;-74
2021/06/16 07:01:07;;;;;;;22.10;12.32;;;;;;;21.05;100.00;97944.72;4991442;28;20044;-74
2021/06/16 07:03:34;;;;;;;19.92;11.80;;;;;;;21.49;100.00;97933.00;4990592;28;20616;-74
2021/06/16 07:06:01;;;;;;;21.15;10.82;;;;;;;21.55;100.00;97932.25;4992001;28;20521;-73
2021/06/16 07:08:27;;;;;;;18.65;10.63;;;;;;;21.41;100.00;97920.31;5008047;28;20050;-73
2021/06/16 07:10:54;;;;;;;20.92;10.23;;;;;;;21.82;100.00;97915.56;5001827;28;20049;-75
2021/06/16 07:13:21;;;;;;;22.92;10.88;;;;;;;21.87;100.00;97918.78;4987175;28;20057;-73
2021/06/16 07:16:05;;;;;;;17.58;9.75;;;;;;;22.00;100.00;97920.09;5005976;28;20125;-73
2021/06/16 07:18:32;;;;;;;14.25;9.60;;;;;;;22.27;100.00;97915.91;5004819;28;20137;-74
2021/06/16 07:20:58;;;;;;;18.55;10.43;;;;;;;22.20;100.00;97913.13;5007896;28;20761;-75
2021/06/16 07:23:25;;;;;;;16.88;10.15;;;;;;;22.56;100.00;97916.09;5007467;28;20060;-73
2021/06/16 07:25:51;;;;;;;17.30;9.85;;;;;;;22.45;100.00;97912.50;5025136;28;20571;-73
2021/06/16 07:28:18;;;;;;;19.25;10.27;;;;;;;22.72;100.00;97917.41;5018323;28;20045;-73
2021/06/16 07:30:44;;;;;;;20.45;9.80;;;;;;;22.35;100.00;97923.06;5005880;28;20046;-73
2021/06/16 07:33:12;;;;;;;15.45;9.93;;;;;;;22.45;100.00;97913.28;5006991;28;20046;-73
2021/06/16 07:35:39;;;;;;;21.85;9.48;;;;;;;22.77;100.00;97913.47;5025647;28;20559;-74
2021/06/16 07:38:06;;;;;;;15.55;9.43;;;;;;;23.04;100.00;97912.00;5025078;28;20048;-74
2021/06/16 07:40:32;;;;;;;16.73;9.73;;;;;;;22.85;100.00;97907.59;5025476;28;20060;-75
2021/06/16 07:42:59;;;;;;;22.40;9.48;;;;;;;22.95;100.00;97904.06;5025171;28;20497;-74
2021/06/16 07:45:26;;;;;;;14.35;9.40;;;;;;;23.39;100.00;97905.78;5025142;28;20045;-74
2021/06/16 07:47:53;;;;;;;13.50;8.63;;;;;;;23.79;100.00;97899.13;5007571;28;20559;-73
2021/06/16 07:50:21;;;;;;;18.20;9.38;;;;;;;23.69;100.00;97899.91;5024929;28;20069;-73
2021/06/16 07:52:47;;;;;;;13.80;8.88;;;;;;;24.11;100.00;97906.22;5006319;28;20045;-74
2021/06/16 07:55:15;;;;;;;19.00;8.80;;;;;;;24.36;100.00;97897.91;5025099;28;20493;-74
2021/06/16 07:57:41;;;;;;;14.05;8.85;;;;;;;24.37;100.00;97902.22;5025287;28;20132;-73
2021/06/16 08:00:09;;;;;;;16.90;9.52;;;;;;;24.42;100.00;97896.28;5024487;28;20049;-73
2021/06/16 08:02:38;;;;;;;21.30;9.45;;;;;;;23.99;100.00;97903.84;5024461;28;20054;-74
2021/06/16 08:05:06;;;;;;;18.13;9.18;;;;;;;24.45;100.00;97909.34;4997542;28;20050;-73
2021/06/16 08:07:33;;;;;;;20.17;8.77;;;;;;;24.55;100.00;97899.41;5005520;28;20046;-74
2021/06/16 08:10:03;;;;;;;20.15;9.40;;;;;;;24.55;100.00;97896.66;5004876;28;20089;-74
2021/06/16 08:12:29;;;;;;;17.65;8.98;;;;;;;24.49;100.00;97903.81;5004869;28;20469;-74
2021/06/16 08:14:56;;;;;;;15.70;8.55;;;;;;;24.79;100.00;97904.13;5004631;28;20478;-75
2021/06/16 08:17:25;;;;;;;13.95;8.43;;;;;;;25.08;100.00;97902.81;4987238;28;20215;-75
2021/06/16 08:19:54;;;;;;;16.30;9.15;;;;;;;25.13;100.00;97907.13;5006472;28;20068;-74
2021/06/16 08:22:21;;;;;;;15.80;9.52;;;;;;;24.42;100.00;97907.34;5003721;28;20038;-76
2021/06/16 08:24:47;;;;;;;16.60;9.15;;;;;;;24.60;100.00;97899.78;5010252;28;20505;-74
2021/06/16 08:27:14;;;;;;;18.45;9.57;;;;;;;24.82;100.00;97906.09;4990993;28;20049;-77
2021/06/16 08:29:40;;;;;;;18.25;8.73;;;;;;;25.37;100.00;97908.94;4989853;28;20680;-74
2021/06/16 08:32:10;;;;;;;14.20;9.05;;;;;;;25.30;100.00;97922.84;4990040;28;20045;-74
2021/06/16 08:34:36;;;;;;;17.40;8.68;;;;;;;25.61;100.00;97910.81;4990011;28;20038;-73
2021/06/16 08:37:05;;;;;;;15.82;8.95;;;;;;;25.38;100.00;97905.78;4989664;28;20093;-73
2021/06/16 08:39:33;;;;;;;15.93;9.20;;;;;;;25.66;100.00;97904.81;4990332;28;20053;-73
2021/06/16 08:42:00;;;;;;;16.33;9.65;;;;;;;25.42;100.00;97908.53;4988780;28;20038;-74
2021/06/16 08:44:28;;;;;;;16.95;9.10;;;;;;;25.79;100.00;97905.91;4987627;28;20039;-72
2021/06/16 08:46:55;;;;;;;14.23;8.68;;;;;;;26.20;100.00;97905.19;4988768;28;20076;-72
2021/06/16 08:49:22;;;;;;;18.58;9.50;;;;;;;25.97;100.00;97900.22;4990300;28;20105;-73
2021/06/16 08:51:48;;;;;;;16.45;9.90;;;;;;;26.48;100.00;97900.13;4991940;28;20053;-73
2021/06/16 08:54:15;;;;;;;14.70;9.13;;;;;;;26.56;100.00;97898.84;4992762;28;20105;-74
2021/06/16 08:56:41;;;;;;;43.45;9.65;;;;;;;26.57;100.00;97892.13;4990890;28;20413;-72
2021/06/16 08:59:08;;;;;;;63.17;10.38;;;;;;;26.73;100.00;97899.06;5008171;28;20053;-76
2021/06/16 09:01:35;;;;;;;21.15;8.63;;;;;;;26.58;100.00;97895.69;4993880;28;20050;-71
2021/06/16 09:04:03;;;;;;;18.92;8.98;;;;;;;26.83;100.00;97900.97;5002239;28;20041;-78
2021/06/16 09:06:31;;;;;;;15.15;8.95;;;;;;;26.72;100.00;97886.38;5011618;28;20555;-81
2021/06/16 09:09:01;;;;;;;17.95;8.77;;;;;;;27.15;100.00;97893.78;4976399;28;20057;-71
2021/06/16 09:11:48;;;;;;;19.20;9.60;;;;;;;26.99;100.00;97896.41;4988366;28;20050;-73
2021/06/16 09:14:20;;;;;;;25.40;9.60;;;;;;;26.80;100.00;97893.44;4992871;28;20041;-72
2021/06/16 09:16:48;;;;;;;19.75;9.60;;;;;;;26.91;100.00;97894.91;4993636;28;20137;-80
2021/06/16 09:19:17;;;;;;;12.52;8.88;;;;;;;27.28;100.00;97893.22;4992652;28;20172;-76
2021/06/16 09:21:44;;;;;;;16.75;9.32;;;;;;;27.00;100.00;97889.63;4976130;28;20453;-80
2021/06/16 09:24:15;;;;;;;15.18;8.75;;;;;;;27.57;100.00;97891.63;4993390;28;20046;-76
2021/06/16 09:26:43;;;;;;;16.35;7.97;;;;;;;27.71;100.00;97902.53;4993254;28;20057;-74
2021/06/16 09:29:11;;;;;;;21.23;8.80;;;;;;;27.08;100.00;97891.09;5007939;28;20107;-71
2021/06/16 09:31:42;;;;;;;14.00;8.75;;;;;;;27.52;100.00;97883.75;5007718;28;20058;-71
2021/06/16 09:34:15;;;;;;;17.73;9.30;;;;;;;27.80;100.00;97874.94;5007524;28;20052;-77
2021/06/16 09:36:54;;;;;;;16.55;8.27;;;;;;;28.42;100.00;97880.63;5004701;28;20045;-82
2021/06/16 09:39:25;;;;;;;11.77;8.13;;;;;;;29.33;100.00;97879.19;4979155;28;20057;-75
2021/06/16 09:42:00;;;;;;;15.13;8.10;;;;;;;29.27;100.00;97878.16;4991976;28;20422;-75
2021/06/16 09:44:42;;;;;;;14.80;8.05;;;;;;;29.99;100.00;97878.84;5012243;28;20092;-81
2021/06/16 09:47:27;;;;;;;14.75;7.40;;;;;;;30.99;91.86;97870.13;4980769;28;20241;-84
2021/06/16 09:50:06;;;;;;;14.85;7.55;;;;;;;31.21;94.05;97868.22;5020484;28;20053;-82
2021/06/16 09:52:51;;;;;;;13.35;8.10;;;;;;;31.54;83.81;97854.81;4994926;28;20153;-81
2021/06/16 09:55:21;;;;;;;13.63;8.57;;;;;;;30.96;86.24;97873.00;4995512;28;20042;-80
2021/06/16 09:58:02;;;;;;;14.38;7.63;;;;;;;32.55;67.76;97869.44;5024237;28;20527;-81
2021/06/16 10:00:34;;;;;;;17.48;7.68;;;;;;;32.30;68.54;97860.31;5010945;28;20058;-82
2021/06/16 10:03:14;;;;;;;29.48;8.55;;;;;;;32.10;64.71;97874.63;4992890;28;20053;-80
2021/06/16 10:06:05;;;;;;;13.82;7.80;;;;;;;31.77;65.21;97871.25;5008719;28;20101;-79
2021/06/16 10:08:35;;;;;;;24.77;7.97;;;;;;;31.33;76.55;97870.25;4993534;28;20048;-80
2021/06/16 10:11:04;;;;;;;13.98;7.55;;;;;;;32.19;69.00;97865.50;4992251;28;20777;-80
2021/06/16 10:13:32;;;;;;;14.63;7.78;;;;;;;33.46;58.29;97861.59;4992030;28;20254;-79
2021/06/16 10:16:00;;;;;;;13.10;7.50;;;;;;;33.98;55.61;97857.88;5009774;28;20191;-79
2021/06/16 10:18:33;;;;;;;12.02;7.30;;;;;;;34.09;51.70;97849.00;5009108;28;20130;-80
2021/06/16 10:21:00;;;;;;;14.35;8.25;;;;;;;34.14;52.22;97854.00;4990992;28;20054;-80
2021/06/16 10:23:27;;;;;;;15.05;7.43;;;;;;;34.36;51.17;97849.03;5005368;28;20041;-80
2021/06/16 10:26:09;;;;;;;14.63;6.22;;;;;;;34.45;49.47;97846.22;4990019;28;20046;-80
2021/06/16 10:28:53;;;;;;;10.93;6.97;;;;;;;32.77;52.90;97840.59;4996089;28;20058;-79
2021/06/16 10:31:20;;;;;;;13.85;7.25;;;;;;;33.60;52.36;97843.41;5012900;28;20510;-79
2021/06/16 10:33:58;;;;;;;16.23;6.88;;;;;;;33.76;55.63;97837.50;5008405;28;20041;-79
2021/06/16 10:36:25;;;;;;;11.93;6.88;;;;;;;34.73;51.25;97844.19;4991412;28;20068;-80
2021/06/16 10:39:24;;;;;;;13.35;6.72;;;;;;;34.40;47.57;97833.53;5018729;28;20046;-81
2021/06/16 10:42:34;;;;;;;12.27;6.85;;;;;;;34.59;49.05;97842.00;5011090;28;20075;-81
2021/06/16 10:46:15;;;;;;;11.00;6.60;;;;;;;34.99;48.09;97836.94;5013811;28;20050;-80
2021/06/16 11:07:22;;;;;;;;;;;;;;;;;;;;;
2021/06/16 11:13:42;;;;;;;10.15;6.47;;;;;;;36.35;41.88;97793.19;4966708;28;20058;-80
2021/06/16 11:16:45;;;;;;;10.43;6.68;;;;;;;36.59;42.00;97808.84;4968131;28;20043;-82
2021/06/16 11:19:21;;;;;;;10.00;6.07;;;;;;;36.62;40.85;97813.53;4949949;28;20049;-81
2021/06/16 11:21:49;;;;;;;13.32;6.40;;;;;;;36.82;41.43;97810.81;4941006;29;20083;-80
2021/06/16 11:24:21;;;;;;;11.60;6.05;;;;;;;37.08;41.22;97810.22;4930208;29;20047;-80
2021/06/16 11:26:48;;;;;;;16.48;6.40;;;;;;;36.03;41.86;97808.97;4897613;29;20106;-81
2021/06/16 11:29:54;;;;;;;16.05;6.53;;;;;;;36.34;40.93;97800.88;4937941;28;20567;-81
2021/06/16 11:32:24;;;;;;;19.88;6.00;;;;;;;36.32;41.06;97800.59;4967414;28;20491;-81
2021/06/16 11:34:54;;;;;;;13.90;5.95;;;;;;;36.19;40.12;97798.03;4951465;28;20043;-81
2021/06/16 11:37:59;;;;;;;15.55;6.70;;;;;;;34.41;45.37;97801.38;4951907;28;20133;-80
2021/06/16 11:40:26;;;;;;;14.25;6.85;;;;;;;34.01;44.68;97792.31;4951855;28;20057;-80
2021/06/16 11:42:53;;;;;;;11.68;7.15;;;;;;;34.79;44.37;97786.03;4954602;28;20061;-79
2021/06/16 11:45:20;;;;;;;8.98;6.32;;;;;;;36.25;40.53;97786.88;4970863;28;20057;-77
2021/06/16 11:47:54;;;;;;;14.38;6.32;;;;;;;36.55;39.91;97784.88;4952385;28;20058;-76
2021/06/16 11:50:28;;;;;;;10.60;5.80;;;;;;;37.98;38.96;97788.47;4953869;28;20145;-79